sensor_id;sensor_type;location;lat;lon;timestamp;pressure;altitude;pressure_sealevel;temperature;humidity
32131;BME280;18639;50.716;7.086;2022-09-09T00:02:28;99722.88;;;16.89;100.00
32131;BME280;18639;50.716;7.086;2022-09-09T00:04:59;99707.78;;;16.75;100.00
32131;BME280;18639;50.716;7.086;2022-09-09T00:07:43;99715.94;;;16.72;100.00
32131;BME280;18639;50.716;7.086;2022-09-09T00:10:21;99702.97;;;16.62;100.00
32131;BME280;18639;50.716;7.086;2022-09-09T00:13:12;99714.22;;;16.63;100.00
32131;BME280;18639;50.716;7.086;2022-09-09T00:21:11;99713.13;;;16.48;100.00
32131;BME280;18639;50.716;7.086;2022-09-09T00:23:40;99707.91;;;16.48;100.00
32131;BME280;18639;50.716;7.086;2022-09-09T00:26:21;99707.84;;;16.39;100.00
32131;BME280;18639;50.716;7.086;2022-09-09T00:31:34;99702.09;;;16.36;100.00
32131;BME280;18639;50.716;7.086;2022-09-09T00:34:24;99693.91;;;16.31;100.00
32131;BME280;18639;50.716;7.086;2022-09-09T00:36:52;99702.41;;;16.33;100.00
32131;BME280;18639;50.716;7.086;2022-09-09T00:39:30;99700.09;;;16.30;100.00
32131;BME280;18639;50.716;7.086;2022-09-09T00:42:02;99703.69;;;16.29;100.00
32131;BME280;18639;50.716;7.086;2022-09-09T00:44:37;99699.91;;;16.23;100.00
32131;BME280;18639;50.716;7.086;2022-09-09T00:47:29;99703.16;;;16.25;100.00
32131;BME280;18639;50.716;7.086;2022-09-09T00:55:28;99707.34;;;16.18;100.00
32131;BME280;18639;50.716;7.086;2022-09-09T00:57:57;99715.81;;;16.20;100.00
32131;BME280;18639;50.716;7.086;2022-09-09T01:00:40;99704.06;;;16.16;100.00
32131;BME280;18639;50.716;7.086;2022-09-09T01:06:15;99716.88;;;16.27;100.00
32131;BME280;18639;50.716;7.086;2022-09-09T01:14:39;99710.00;;;16.26;100.00
32131;BME280;18639;50.716;7.086;2022-09-09T01:17:21;99706.44;;;16.27;100.00
32131;BME280;18639;50.716;7.086;2022-09-09T01:20:03;99704.19;;;16.32;100.00
32131;BME280;18639;50.716;7.086;2022-09-09T01:22:47;99694.06;;;16.29;100.00
32131;BME280;18639;50.716;7.086;2022-09-09T01:25:22;99709.09;;;16.35;100.00
32131;BME280;18639;50.716;7.086;2022-09-09T01:27:55;99695.88;;;16.29;100.00
32131;BME280;18639;50.716;7.086;2022-09-09T01:30:22;99702.91;;;16.36;100.00
32131;BME280;18639;50.716;7.086;2022-09-09T01:32:50;99700.91;;;16.30;100.00
32131;BME280;18639;50.716;7.086;2022-09-09T01:37:52;99705.53;;;16.36;100.00
32131;BME280;18639;50.716;7.086;2022-09-09T01:40:17;99700.81;;;16.40;100.00
32131;BME280;18639;50.716;7.086;2022-09-09T01:42:43;99706.25;;;16.47;100.00
32131;BME280;18639;50.716;7.086;2022-09-09T01:45:09;99695.81;;;16.47;100.00
32131;BME280;18639;50.716;7.086;2022-09-09T01:47:35;99697.69;;;16.54;100.00
32131;BME280;18639;50.716;7.086;2022-09-09T01:50:01;99697.91;;;16.61;100.00
32131;BME280;18639;50.716;7.086;2022-09-09T01:52:27;99677.63;;;16.55;100.00
32131;BME280;18639;50.716;7.086;2022-09-09T01:54:52;99680.38;;;16.53;100.00
32131;BME280;18639;50.716;7.086;2022-09-09T01:57:33;99696.50;;;16.66;100.00
32131;BME280;18639;50.716;7.086;2022-09-09T02:00:06;99698.81;;;16.77;100.00
32131;BME280;18639;50.716;7.086;2022-09-09T02:03:05;99695.72;;;16.74;100.00
32131;BME280;18639;50.716;7.086;2022-09-09T02:05:45;99685.06;;;16.67;100.00
32131;BME280;18639;50.716;7.086;2022-09-09T02:08:24;99698.03;;;16.77;100.00
32131;BME280;18639;50.716;7.086;2022-09-09T02:13:42;99693.97;;;16.82;100.00
32131;BME280;18639;50.716;7.086;2022-09-09T02:16:25;99686.44;;;16.79;100.00
32131;BME280;18639;50.716;7.086;2022-09-09T02:21:27;99687.47;;;16.87;100.00
32131;BME280;18639;50.716;7.086;2022-09-09T02:23:55;99704.31;;;17.00;100.00
32131;BME280;18639;50.716;7.086;2022-09-09T02:26:23;99711.19;;;17.01;100.00
32131;BME280;18639;50.716;7.086;2022-09-09T02:28:51;99706.66;;;17.03;100.00
32131;BME280;18639;50.716;7.086;2022-09-09T02:31:20;99707.28;;;17.05;99.64
32131;BME280;18639;50.716;7.086;2022-09-09T02:33:59;99710.06;;;17.04;99.25
32131;BME280;18639;50.716;7.086;2022-09-09T02:36:29;99706.66;;;17.11;98.95
32131;BME280;18639;50.716;7.086;2022-09-09T02:38:56;99680.19;;;16.98;99.17
32131;BME280;18639;50.716;7.086;2022-09-09T02:41:26;99696.91;;;17.13;98.22
32131;BME280;18639;50.716;7.086;2022-09-09T02:43:52;99695.25;;;17.12;98.37
32131;BME280;18639;50.716;7.086;2022-09-09T02:54:26;99683.38;;;17.18;97.98
32131;BME280;18639;50.716;7.086;2022-09-09T02:56:54;99680.59;;;17.19;98.83
32131;BME280;18639;50.716;7.086;2022-09-09T02:59:21;99685.16;;;17.17;98.75
32131;BME280;18639;50.716;7.086;2022-09-09T03:01:46;99651.50;;;17.06;97.93
32131;BME280;18639;50.716;7.086;2022-09-09T03:04:12;99682.06;;;17.22;98.18
32131;BME280;18639;50.716;7.086;2022-09-09T03:06:39;99662.94;;;17.13;98.24
32131;BME280;18639;50.716;7.086;2022-09-09T03:09:04;99681.25;;;17.21;98.54
32131;BME280;18639;50.716;7.086;2022-09-09T03:11:29;99675.06;;;17.22;97.55
32131;BME280;18639;50.716;7.086;2022-09-09T03:13:55;99637.75;;;16.96;97.77
32131;BME280;18639;50.716;7.086;2022-09-09T03:16:23;99665.91;;;17.18;98.36
32131;BME280;18639;50.716;7.086;2022-09-09T03:18:48;99672.09;;;17.17;98.39
32131;BME280;18639;50.716;7.086;2022-09-09T03:21:14;99675.06;;;17.22;97.52
32131;BME280;18639;50.716;7.086;2022-09-09T03:23:39;99668.19;;;17.21;97.82
32131;BME280;18639;50.716;7.086;2022-09-09T03:26:05;99675.69;;;17.16;98.36
32131;BME280;18639;50.716;7.086;2022-09-09T03:28:30;99663.78;;;17.14;98.54
32131;BME280;18639;50.716;7.086;2022-09-09T03:31:04;99657.41;;;17.16;97.27
32131;BME280;18639;50.716;7.086;2022-09-09T03:33:30;99678.00;;;17.19;98.31
32131;BME280;18639;50.716;7.086;2022-09-09T03:35:56;99676.53;;;17.25;97.75
32131;BME280;18639;50.716;7.086;2022-09-09T03:38:23;99679.59;;;17.20;98.61
32131;BME280;18639;50.716;7.086;2022-09-09T03:40:53;99682.22;;;17.20;99.10
32131;BME280;18639;50.716;7.086;2022-09-09T03:43:23;99676.97;;;17.12;99.00
32131;BME280;18639;50.716;7.086;2022-09-09T03:45:49;99689.69;;;17.07;99.28
32131;BME280;18639;50.716;7.086;2022-09-09T03:48:16;99685.22;;;17.00;99.57
32131;BME280;18639;50.716;7.086;2022-09-09T03:50:49;99691.00;;;17.11;99.11
32131;BME280;18639;50.716;7.086;2022-09-09T03:53:15;99680.88;;;17.08;99.34
32131;BME280;18639;50.716;7.086;2022-09-09T03:55:49;99679.88;;;17.01;100.00
32131;BME280;18639;50.716;7.086;2022-09-09T03:58:15;99677.56;;;16.98;100.00
32131;BME280;18639;50.716;7.086;2022-09-09T04:00:41;99673.31;;;16.97;100.00
32131;BME280;18639;50.716;7.086;2022-09-09T04:03:09;99679.03;;;17.01;100.00
32131;BME280;18639;50.716;7.086;2022-09-09T04:05:35;99672.19;;;17.00;99.82
32131;BME280;18639;50.716;7.086;2022-09-09T04:08:00;99676.56;;;16.99;100.00
32131;BME280;18639;50.716;7.086;2022-09-09T04:10:25;99666.78;;;16.93;100.00
32131;BME280;18639;50.716;7.086;2022-09-09T04:12:51;99682.00;;;17.06;100.00
32131;BME280;18639;50.716;7.086;2022-09-09T04:15:17;99657.31;;;16.92;100.00
32131;BME280;18639;50.716;7.086;2022-09-09T04:17:43;99687.22;;;17.06;100.00
32131;BME280;18639;50.716;7.086;2022-09-09T04:20:08;99690.81;;;17.05;100.00
32131;BME280;18639;50.716;7.086;2022-09-09T04:22:36;99686.72;;;17.02;100.00
32131;BME280;18639;50.716;7.086;2022-09-09T04:25:04;99691.63;;;17.05;100.00
32131;BME280;18639;50.716;7.086;2022-09-09T04:27:30;99674.44;;;16.95;100.00
32131;BME280;18639;50.716;7.086;2022-09-09T04:29:55;99693.88;;;17.00;100.00
32131;BME280;18639;50.716;7.086;2022-09-09T04:32:22;99682.81;;;16.98;100.00
32131;BME280;18639;50.716;7.086;2022-09-09T04:34:47;99692.97;;;17.09;100.00
32131;BME280;18639;50.716;7.086;2022-09-09T04:37:13;99679.88;;;17.01;100.00
32131;BME280;18639;50.716;7.086;2022-09-09T04:39:38;99696.91;;;17.13;99.37
32131;BME280;18639;50.716;7.086;2022-09-09T04:42:04;99691.31;;;17.08;99.06
32131;BME280;18639;50.716;7.086;2022-09-09T04:44:29;99696.22;;;17.11;98.99
32131;BME280;18639;50.716;7.086;2022-09-09T04:46:55;99694.75;;;17.09;98.98
32131;BME280;18639;50.716;7.086;2022-09-09T04:49:20;99695.88;;;17.06;98.93
32131;BME280;18639;50.716;7.086;2022-09-09T04:51:45;99692.25;;;16.99;99.36
32131;BME280;18639;50.716;7.086;2022-09-09T04:54:12;99707.47;;;17.04;99.75
32131;BME280;18639;50.716;7.086;2022-09-09T04:56:37;99694.50;;;16.94;99.98
32131;BME280;18639;50.716;7.086;2022-09-09T04:59:02;99708.94;;;17.06;99.39
32131;BME280;18639;50.716;7.086;2022-09-09T05:01:29;99705.66;;;17.04;98.60
32131;BME280;18639;50.716;7.086;2022-09-09T05:03:54;99696.50;;;17.00;98.59
32131;BME280;18639;50.716;7.086;2022-09-09T05:06:20;99684.69;;;16.88;98.58
32131;BME280;18639;50.716;7.086;2022-09-09T05:08:46;99705.28;;;16.99;99.15
32131;BME280;18639;50.716;7.086;2022-09-09T05:11:18;99696.16;;;16.95;99.25
32131;BME280;18639;50.716;7.086;2022-09-09T05:13:44;99687.16;;;16.90;99.39
32131;BME280;18639;50.716;7.086;2022-09-09T05:16:10;99698.91;;;16.94;100.00
32131;BME280;18639;50.716;7.086;2022-09-09T05:18:39;99706.78;;;17.02;100.00
32131;BME280;18639;50.716;7.086;2022-09-09T05:21:05;99698.25;;;16.92;98.01
32131;BME280;18639;50.716;7.086;2022-09-09T05:23:31;99708.09;;;16.98;97.91
32131;BME280;18639;50.716;7.086;2022-09-09T05:25:57;99703.97;;;16.95;98.10
32131;BME280;18639;50.716;7.086;2022-09-09T05:28:24;99705.75;;;16.95;97.84
32131;BME280;18639;50.716;7.086;2022-09-09T05:31:04;99706.78;;;17.02;97.44
32131;BME280;18639;50.716;7.086;2022-09-09T05:33:31;99710.56;;;17.07;97.30
32131;BME280;18639;50.716;7.086;2022-09-09T05:36:06;99709.59;;;17.08;97.55
32131;BME280;18639;50.716;7.086;2022-09-09T05:38:33;99709.75;;;17.07;98.62
32131;BME280;18639;50.716;7.086;2022-09-09T05:40:59;99678.84;;;16.94;96.92
32131;BME280;18639;50.716;7.086;2022-09-09T05:43:25;99706.03;;;17.09;96.98
32131;BME280;18639;50.716;7.086;2022-09-09T05:46:09;99703.09;;;17.12;97.44
32131;BME280;18639;50.716;7.086;2022-09-09T05:48:43;99697.19;;;17.10;97.35
32131;BME280;18639;50.716;7.086;2022-09-09T05:51:10;99708.50;;;17.19;96.80
32131;BME280;18639;50.716;7.086;2022-09-09T05:53:41;99674.03;;;17.07;96.42
32131;BME280;18639;50.716;7.086;2022-09-09T05:56:08;99691.69;;;17.21;96.00
32131;BME280;18639;50.716;7.086;2022-09-09T05:58:35;99692.72;;;17.29;96.59
32131;BME280;18639;50.716;7.086;2022-09-09T06:01:07;99688.81;;;17.33;95.16
32131;BME280;18639;50.716;7.086;2022-09-09T06:03:37;99697.94;;;17.37;95.72
32131;BME280;18639;50.716;7.086;2022-09-09T06:06:05;99688.50;;;17.36;96.36
32131;BME280;18639;50.716;7.086;2022-09-09T06:08:35;99676.06;;;17.30;95.55
32131;BME280;18639;50.716;7.086;2022-09-09T06:11:13;99691.94;;;17.44;94.52
32131;BME280;18639;50.716;7.086;2022-09-09T06:13:40;99697.34;;;17.51;93.73
32131;BME280;18639;50.716;7.086;2022-09-09T06:16:08;99689.66;;;17.49;93.26
32131;BME280;18639;50.716;7.086;2022-09-09T06:18:33;99686.28;;;17.57;92.90
32131;BME280;18639;50.716;7.086;2022-09-09T06:21:01;99682.66;;;17.58;93.00
32131;BME280;18639;50.716;7.086;2022-09-09T06:23:28;99694.75;;;17.59;92.34
32131;BME280;18639;50.716;7.086;2022-09-09T06:26:08;99694.81;;;17.67;92.37
32131;BME280;18639;50.716;7.086;2022-09-09T06:28:35;99677.16;;;17.61;92.80
32131;BME280;18639;50.716;7.086;2022-09-09T06:31:05;99700.03;;;17.75;91.87
32131;BME280;18639;50.716;7.086;2022-09-09T06:33:33;99700.56;;;17.79;91.33
32131;BME280;18639;50.716;7.086;2022-09-09T06:36:00;99673.91;;;17.75;90.42
32131;BME280;18639;50.716;7.086;2022-09-09T06:38:25;99681.41;;;17.70;92.37
32131;BME280;18639;50.716;7.086;2022-09-09T06:40:55;99693.03;;;17.76;92.05
32131;BME280;18639;50.716;7.086;2022-09-09T06:43:22;99696.94;;;17.72;92.32
32131;BME280;18639;50.716;7.086;2022-09-09T06:46:05;99689.09;;;17.72;90.75
32131;BME280;18639;50.716;7.086;2022-09-09T06:48:31;99673.56;;;17.62;91.52
32131;BME280;18639;50.716;7.086;2022-09-09T06:51:09;99688.63;;;17.76;92.21
32131;BME280;18639;50.716;7.086;2022-09-09T06:53:37;99680.28;;;17.73;92.10
32131;BME280;18639;50.716;7.086;2022-09-09T06:56:27;99672.25;;;17.74;90.82
32131;BME280;18639;50.716;7.086;2022-09-09T06:58:54;99690.75;;;17.97;89.05
32131;BME280;18639;50.716;7.086;2022-09-09T07:01:22;99688.31;;;18.03;88.50
32131;BME280;18639;50.716;7.086;2022-09-09T07:03:50;99673.59;;;18.02;88.17
32131;BME280;18639;50.716;7.086;2022-09-09T07:06:18;99684.09;;;18.11;87.94
32131;BME280;18639;50.716;7.086;2022-09-09T07:08:48;99699.44;;;18.30;88.76
32131;BME280;18639;50.716;7.086;2022-09-09T07:11:14;99684.25;;;18.25;86.48
32131;BME280;18639;50.716;7.086;2022-09-09T07:13:39;99674.41;;;18.27;87.25
32131;BME280;18639;50.716;7.086;2022-09-09T07:16:06;99690.78;;;18.37;86.67
32131;BME280;18639;50.716;7.086;2022-09-09T07:18:32;99667.69;;;18.33;84.32
32131;BME280;18639;50.716;7.086;2022-09-09T07:20:58;99684.72;;;18.53;83.04
32131;BME280;18639;50.716;7.086;2022-09-09T07:23:24;99681.44;;;18.59;84.18
32131;BME280;18639;50.716;7.086;2022-09-09T07:25:50;99688.13;;;18.70;83.00
32131;BME280;18639;50.716;7.086;2022-09-09T07:28:16;99691.25;;;18.73;80.85
32131;BME280;18639;50.716;7.086;2022-09-09T07:30:42;99671.78;;;18.68;79.57
32131;BME280;18639;50.716;7.086;2022-09-09T07:33:08;99696.94;;;18.85;79.52
32131;BME280;18639;50.716;7.086;2022-09-09T07:35:37;99684.31;;;18.88;79.55
32131;BME280;18639;50.716;7.086;2022-09-09T07:38:03;99703.41;;;19.05;78.86
32131;BME280;18639;50.716;7.086;2022-09-09T07:40:32;99722.16;;;19.25;77.72
32131;BME280;18639;50.716;7.086;2022-09-09T07:42:57;99719.00;;;19.38;77.05
32131;BME280;18639;50.716;7.086;2022-09-09T07:45:22;99722.91;;;19.42;75.87
32131;BME280;18639;50.716;7.086;2022-09-09T07:47:48;99728.94;;;19.58;76.59
32131;BME280;18639;50.716;7.086;2022-09-09T07:50:13;99725.84;;;19.55;76.65
32131;BME280;18639;50.716;7.086;2022-09-09T07:52:40;99739.84;;;19.70;76.39
32131;BME280;18639;50.716;7.086;2022-09-09T07:55:06;99741.97;;;19.66;76.04
32131;BME280;18639;50.716;7.086;2022-09-09T07:57:31;99700.22;;;19.26;77.34
32131;BME280;18639;50.716;7.086;2022-09-09T07:59:57;99731.28;;;19.37;77.48
32131;BME280;18639;50.716;7.086;2022-09-09T08:02:23;99737.38;;;19.29;78.14
32131;BME280;18639;50.716;7.086;2022-09-09T08:04:50;99715.50;;;19.14;79.21
32131;BME280;18639;50.716;7.086;2022-09-09T08:07:16;99733.13;;;19.28;76.86
32131;BME280;18639;50.716;7.086;2022-09-09T08:09:41;99712.03;;;19.22;77.29
32131;BME280;18639;50.716;7.086;2022-09-09T08:12:07;99736.50;;;19.45;75.73
32131;BME280;18639;50.716;7.086;2022-09-09T08:14:33;99727.69;;;19.38;74.88
32131;BME280;18639;50.716;7.086;2022-09-09T08:16:58;99735.47;;;19.62;72.60
32131;BME280;18639;50.716;7.086;2022-09-09T08:19:25;99732.66;;;19.64;73.02
32131;BME280;18639;50.716;7.086;2022-09-09T08:21:50;99721.72;;;19.83;72.52
32131;BME280;18639;50.716;7.086;2022-09-09T08:24:16;99732.19;;;19.91;71.39
32131;BME280;18639;50.716;7.086;2022-09-09T08:26:44;99714.97;;;19.89;70.23
32131;BME280;18639;50.716;7.086;2022-09-09T08:29:12;99740.75;;;20.08;70.32
32131;BME280;18639;50.716;7.086;2022-09-09T08:31:44;99730.56;;;20.13;70.93
32131;BME280;18639;50.716;7.086;2022-09-09T08:34:10;99740.91;;;20.52;71.44
32131;BME280;18639;50.716;7.086;2022-09-09T08:36:38;99745.78;;;21.07;68.20
32131;BME280;18639;50.716;7.086;2022-09-09T08:39:05;99739.50;;;21.67;66.70
32131;BME280;18639;50.716;7.086;2022-09-09T08:41:35;99735.06;;;22.03;65.26
32131;BME280;18639;50.716;7.086;2022-09-09T08:44:10;99722.53;;;22.05;64.25
32131;BME280;18639;50.716;7.086;2022-09-09T08:47:02;99721.47;;;21.85;60.78
32131;BME280;18639;50.716;7.086;2022-09-09T08:52:41;99738.44;;;22.18;60.38
32131;BME280;18639;50.716;7.086;2022-09-09T08:55:24;99732.03;;;22.06;59.96
32131;BME280;18639;50.716;7.086;2022-09-09T08:57:53;99724.88;;;21.79;60.07
32131;BME280;18639;50.716;7.086;2022-09-09T09:00:19;99735.97;;;21.60;60.00
32131;BME280;18639;50.716;7.086;2022-09-09T09:08:49;99735.19;;;22.93;56.97
32131;BME280;18639;50.716;7.086;2022-09-09T09:11:19;99733.63;;;22.71;56.34
32131;BME280;18639;50.716;7.086;2022-09-09T09:14:10;99746.06;;;22.56;56.32
32131;BME280;18639;50.716;7.086;2022-09-09T09:16:51;99738.03;;;22.15;56.95
32131;BME280;18639;50.716;7.086;2022-09-09T09:19:18;99734.38;;;21.80;57.45
32131;BME280;18639;50.716;7.086;2022-09-09T09:21:44;99755.59;;;21.57;57.23
32131;BME280;18639;50.716;7.086;2022-09-09T09:24:19;99745.34;;;21.48;57.67
32131;BME280;18639;50.716;7.086;2022-09-09T09:26:47;99747.97;;;21.48;58.46
32131;BME280;18639;50.716;7.086;2022-09-09T09:29:17;99755.59;;;21.57;57.45
32131;BME280;18639;50.716;7.086;2022-09-09T09:31:51;99752.81;;;21.29;58.24
32131;BME280;18639;50.716;7.086;2022-09-09T09:34:17;99758.78;;;21.38;58.70
32131;BME280;18639;50.716;7.086;2022-09-09T09:37:01;99749.81;;;21.47;58.32
32131;BME280;18639;50.716;7.086;2022-09-09T09:39:33;99741.53;;;22.01;58.61
32131;BME280;18639;50.716;7.086;2022-09-09T09:42:11;99758.28;;;21.64;57.79
32131;BME280;18639;50.716;7.086;2022-09-09T09:44:40;99749.31;;;21.58;56.21
32131;BME280;18639;50.716;7.086;2022-09-09T09:47:21;99744.81;;;21.37;58.48
32131;BME280;18639;50.716;7.086;2022-09-09T09:49:58;99763.94;;;21.46;58.65
32131;BME280;18639;50.716;7.086;2022-09-09T09:52:26;99759.25;;;21.77;59.21
32131;BME280;18639;50.716;7.086;2022-09-09T09:54:53;99755.75;;;22.28;57.77
32131;BME280;18639;50.716;7.086;2022-09-09T09:57:24;99761.78;;;22.43;55.01
32131;BME280;18639;50.716;7.086;2022-09-09T10:00:21;99746.63;;;22.73;54.09
32131;BME280;18639;50.716;7.086;2022-09-09T10:02:48;99748.69;;;22.77;53.99
32131;BME280;18639;50.716;7.086;2022-09-09T10:05:25;99755.63;;;23.13;53.97
32131;BME280;18639;50.716;7.086;2022-09-09T10:08:18;99758.16;;;22.99;53.20
32131;BME280;18639;50.716;7.086;2022-09-09T10:13:20;99755.97;;;22.75;54.94
32131;BME280;18639;50.716;7.086;2022-09-09T10:21:43;99755.19;;;22.32;55.02
32131;BME280;18639;50.716;7.086;2022-09-09T10:27:03;99743.81;;;21.89;55.90
32131;BME280;18639;50.716;7.086;2022-09-09T10:29:53;99757.13;;;21.52;56.22
32131;BME280;18639;50.716;7.086;2022-09-09T10:35:34;99742.44;;;21.13;59.19
32131;BME280;18639;50.716;7.086;2022-09-09T10:38:12;99741.19;;;21.09;61.01
32131;BME280;18639;50.716;7.086;2022-09-09T10:40:50;99749.84;;;20.95;61.36
32131;BME280;18639;50.716;7.086;2022-09-09T10:46:16;99749.16;;;21.01;60.48
32131;BME280;18639;50.716;7.086;2022-09-09T10:51:49;99738.34;;;20.96;61.46
32131;BME280;18639;50.716;7.086;2022-09-09T10:57:04;99729.28;;;20.84;62.22
32131;BME280;18639;50.716;7.086;2022-09-09T10:59:34;99734.25;;;20.79;62.00
32131;BME280;18639;50.716;7.086;2022-09-09T11:02:24;99744.72;;;21.01;62.72
32131;BME280;18639;50.716;7.086;2022-09-09T11:04:55;99744.47;;;21.26;61.57
32131;BME280;18639;50.716;7.086;2022-09-09T11:07:41;99740.84;;;21.41;60.88
32131;BME280;18639;50.716;7.086;2022-09-09T11:10:21;99737.34;;;21.56;59.04
32131;BME280;18639;50.716;7.086;2022-09-09T11:12:51;99738.59;;;21.60;58.37
32131;BME280;18639;50.716;7.086;2022-09-09T11:15:36;99717.72;;;21.73;57.39
32131;BME280;18639;50.716;7.086;2022-09-09T11:18:10;99725.53;;;22.02;58.53
32131;BME280;18639;50.716;7.086;2022-09-09T11:20:38;99692.31;;;22.22;57.32
32131;BME280;18639;50.716;7.086;2022-09-09T11:23:12;99711.09;;;22.41;57.35
32131;BME280;18639;50.716;7.086;2022-09-09T11:25:47;99685.09;;;22.31;56.10
32131;BME280;18639;50.716;7.086;2022-09-09T11:31:41;99718.38;;;22.39;55.86
32131;BME280;18639;50.716;7.086;2022-09-09T11:37:13;99720.41;;;22.64;55.95
32131;BME280;18639;50.716;7.086;2022-09-09T11:40:22;99726.22;;;22.60;54.74
32131;BME280;18639;50.716;7.086;2022-09-09T11:42:48;99716.56;;;22.67;55.63
32131;BME280;18639;50.716;7.086;2022-09-09T11:45:24;99706.84;;;22.67;54.72
32131;BME280;18639;50.716;7.086;2022-09-09T11:47:57;99708.91;;;22.72;55.40
32131;BME280;18639;50.716;7.086;2022-09-09T11:52:48;99712.56;;;22.71;52.58
32131;BME280;18639;50.716;7.086;2022-09-09T11:57:58;99707.72;;;22.47;53.75
32131;BME280;18639;50.716;7.086;2022-09-09T12:00:41;99706.84;;;22.40;52.64
32131;BME280;18639;50.716;7.086;2022-09-09T12:06:15;99692.84;;;22.39;53.87
32131;BME280;18639;50.716;7.086;2022-09-09T12:08:45;99697.75;;;22.42;52.52
32131;BME280;18639;50.716;7.086;2022-09-09T12:11:11;99709.28;;;22.41;55.47
32131;BME280;18639;50.716;7.086;2022-09-09T12:13:36;99691.81;;;22.12;53.06
32131;BME280;18639;50.716;7.086;2022-09-09T12:16:03;99670.97;;;22.11;52.76
32131;BME280;18639;50.716;7.086;2022-09-09T12:18:38;99704.09;;;22.27;54.39
32131;BME280;18639;50.716;7.086;2022-09-09T12:21:21;99705.47;;;22.01;55.20
32131;BME280;18639;50.716;7.086;2022-09-09T12:23:55;99709.63;;;22.10;55.56
32131;BME280;18639;50.716;7.086;2022-09-09T12:31:44;99715.00;;;22.23;54.90
32131;BME280;18639;50.716;7.086;2022-09-09T12:37:00;99711.28;;;22.11;55.60
32131;BME280;18639;50.716;7.086;2022-09-09T12:39:33;99711.00;;;22.06;56.79
32131;BME280;18639;50.716;7.086;2022-09-09T12:42:00;99695.88;;;21.94;55.48
32131;BME280;18639;50.716;7.086;2022-09-09T12:44:26;99697.34;;;21.96;55.93
32131;BME280;18639;50.716;7.086;2022-09-09T12:46:54;99687.91;;;21.87;57.01
32131;BME280;18639;50.716;7.086;2022-09-09T12:49:34;99694.25;;;21.93;56.80
32131;BME280;18639;50.716;7.086;2022-09-09T12:52:08;99701.31;;;21.92;54.62
32131;BME280;18639;50.716;7.086;2022-09-09T12:54:44;99699.81;;;21.83;55.94
32131;BME280;18639;50.716;7.086;2022-09-09T12:57:12;99702.03;;;21.65;55.88
32131;BME280;18639;50.716;7.086;2022-09-09T12:59:40;99703.03;;;21.64;55.60
32131;BME280;18639;50.716;7.086;2022-09-09T13:02:20;99701.91;;;21.52;58.29
32131;BME280;18639;50.716;7.086;2022-09-09T13:04:46;99686.91;;;21.31;57.99
32131;BME280;18639;50.716;7.086;2022-09-09T13:07:13;99702.41;;;21.40;58.21
32131;BME280;18639;50.716;7.086;2022-09-09T13:09:41;99680.09;;;21.36;58.12
32131;BME280;18639;50.716;7.086;2022-09-09T13:12:13;99688.50;;;21.47;58.32
32131;BME280;18639;50.716;7.086;2022-09-09T13:14:38;99686.75;;;21.54;56.83
32131;BME280;18639;50.716;7.086;2022-09-09T13:17:05;99694.22;;;21.50;59.25
32131;BME280;18639;50.716;7.086;2022-09-09T13:19:36;99682.91;;;21.35;57.36
32131;BME280;18639;50.716;7.086;2022-09-09T13:22:35;99696.22;;;21.33;58.81
32131;BME280;18639;50.716;7.086;2022-09-09T13:25:17;99699.69;;;21.19;59.12
32131;BME280;18639;50.716;7.086;2022-09-09T13:27:53;99696.31;;;21.11;66.96
32131;BME280;18639;50.716;7.086;2022-09-09T13:33:20;99690.25;;;21.10;69.06
32131;BME280;18639;50.716;7.086;2022-09-09T13:35:51;99679.38;;;21.13;66.71
32131;BME280;18639;50.716;7.086;2022-09-09T13:38:18;99673.31;;;21.13;66.83
32131;BME280;18639;50.716;7.086;2022-09-09T13:41:01;99680.66;;;21.17;64.62
32131;BME280;18639;50.716;7.086;2022-09-09T13:43:35;99681.56;;;21.24;63.50
32131;BME280;18639;50.716;7.086;2022-09-09T13:48:57;99668.44;;;21.24;64.09
32131;BME280;18639;50.716;7.086;2022-09-09T13:51:34;99689.72;;;21.29;64.94
32131;BME280;18639;50.716;7.086;2022-09-09T13:54:03;99677.22;;;21.31;63.25
32131;BME280;18639;50.716;7.086;2022-09-09T13:56:28;99675.19;;;21.33;64.65
32131;BME280;18639;50.716;7.086;2022-09-09T13:58:54;99665.50;;;21.34;63.10
32131;BME280;18639;50.716;7.086;2022-09-09T14:01:19;99669.09;;;21.48;63.79
32131;BME280;18639;50.716;7.086;2022-09-09T14:03:44;99655.94;;;21.48;62.24
32131;BME280;18639;50.716;7.086;2022-09-09T14:06:10;99665.34;;;21.57;62.19
32131;BME280;18639;50.716;7.086;2022-09-09T14:08:36;99666.91;;;21.51;63.29
32131;BME280;18639;50.716;7.086;2022-09-09T14:11:05;99658.31;;;21.42;62.27
32131;BME280;18639;50.716;7.086;2022-09-09T14:13:31;99656.56;;;21.50;63.85
32131;BME280;18639;50.716;7.086;2022-09-09T14:15:57;99662.56;;;21.43;62.79
32131;BME280;18639;50.716;7.086;2022-09-09T14:18:22;99672.59;;;21.55;63.62
32131;BME280;18639;50.716;7.086;2022-09-09T14:20:48;99667.53;;;21.53;66.82
32131;BME280;18639;50.716;7.086;2022-09-09T14:23:15;99660.03;;;21.50;68.18
32131;BME280;18639;50.716;7.086;2022-09-09T14:25:42;99665.16;;;21.58;64.45
32131;BME280;18639;50.716;7.086;2022-09-09T14:28:12;99653.63;;;21.59;64.09
32131;BME280;18639;50.716;7.086;2022-09-09T14:30:39;99644.44;;;21.49;62.90
32131;BME280;18639;50.716;7.086;2022-09-09T14:33:05;99664.97;;;21.60;61.19
32131;BME280;18639;50.716;7.086;2022-09-09T14:35:30;99658.91;;;21.59;62.06
32131;BME280;18639;50.716;7.086;2022-09-09T14:37:56;99648.34;;;21.53;62.07
32131;BME280;18639;50.716;7.086;2022-09-09T14:40:21;99658.31;;;21.42;61.34
32131;BME280;18639;50.716;7.086;2022-09-09T14:42:47;99638.63;;;21.17;62.42
32131;BME280;18639;50.716;7.086;2022-09-09T14:45:12;99671.91;;;21.46;62.98
32131;BME280;18639;50.716;7.086;2022-09-09T14:47:37;99655.25;;;21.39;63.31
32131;BME280;18639;50.716;7.086;2022-09-09T14:50:04;99629.31;;;21.15;63.16
32131;BME280;18639;50.716;7.086;2022-09-09T14:52:30;99674.63;;;21.53;63.36
32131;BME280;18639;50.716;7.086;2022-09-09T14:54:56;99660.31;;;21.40;64.23